sensor_id;sensor_type;location;lat;lon;timestamp;P1;durP1;ratioP1;P2;durP2;ratioP2
29824;SDS011;16713;52.916;12.834;2023-08-30T00:01:00;2.50;;;2.30;;
29824;SDS011;16713;52.916;12.834;2023-08-30T00:03:27;4.60;;;2.38;;
29824;SDS011;16713;52.916;12.834;2023-08-30T00:05:54;2.75;;;2.53;;
29824;SDS011;16713;52.916;12.834;2023-08-30T00:08:21;2.53;;;2.15;;
29824;SDS011;16713;52.916;12.834;2023-08-30T00:10:48;4.35;;;2.67;;
29824;SDS011;16713;52.916;12.834;2023-08-30T00:13:14;4.75;;;2.88;;
29824;SDS011;16713;52.916;12.834;2023-08-30T00:15:41;2.40;;;2.20;;
29824;SDS011;16713;52.916;12.834;2023-08-30T00:18:07;2.40;;;2.20;;
29824;SDS011;16713;52.916;12.834;2023-08-30T00:20:34;4.25;;;2.90;;
29824;SDS011;16713;52.916;12.834;2023-08-30T00:23:01;2.90;;;2.53;;
29824;SDS011;16713;52.916;12.834;2023-08-30T00:25:27;5.10;;;3.05;;
29824;SDS011;16713;52.916;12.834;2023-08-30T00:27:54;3.05;;;2.65;;
29824;SDS011;16713;52.916;12.834;2023-08-30T00:30:20;3.25;;;2.65;;
29824;SDS011;16713;52.916;12.834;2023-08-30T00:32:47;4.38;;;2.58;;
29824;SDS011;16713;52.916;12.834;2023-08-30T00:35:13;5.38;;;3.08;;
29824;SDS011;16713;52.916;12.834;2023-08-30T00:37:40;4.35;;;2.63;;
29824;SDS011;16713;52.916;12.834;2023-08-30T00:40:06;4.47;;;2.70;;
29824;SDS011;16713;52.916;12.834;2023-08-30T00:42:33;4.28;;;3.30;;
29824;SDS011;16713;52.916;12.834;2023-08-30T00:44:59;3.65;;;2.63;;
29824;SDS011;16713;52.916;12.834;2023-08-30T00:47:26;4.25;;;3.30;;
29824;SDS011;16713;52.916;12.834;2023-08-30T00:49:53;3.85;;;3.20;;
29824;SDS011;16713;52.916;12.834;2023-08-30T00:52:19;3.92;;;2.75;;
29824;SDS011;16713;52.916;12.834;2023-08-30T00:54:46;6.13;;;2.90;;
29824;SDS011;16713;52.916;12.834;2023-08-30T00:57:13;2.88;;;2.67;;
29824;SDS011;16713;52.916;12.834;2023-08-30T00:59:39;4.18;;;3.78;;
29824;SDS011;16713;52.916;12.834;2023-08-30T01:02:06;3.17;;;2.83;;
29824;SDS011;16713;52.916;12.834;2023-08-30T01:04:33;3.67;;;3.10;;
29824;SDS011;16713;52.916;12.834;2023-08-30T01:06:59;4.38;;;3.33;;
29824;SDS011;16713;52.916;12.834;2023-08-30T01:09:26;4.65;;;3.22;;
29824;SDS011;16713;52.916;12.834;2023-08-30T01:11:59;3.65;;;3.30;;
29824;SDS011;16713;52.916;12.834;2023-08-30T01:14:39;5.28;;;2.90;;
29824;SDS011;16713;52.916;12.834;2023-08-30T01:17:10;3.30;;;2.72;;
29824;SDS011;16713;52.916;12.834;2023-08-30T01:19:55;5.60;;;2.78;;
29824;SDS011;16713;52.916;12.834;2023-08-30T01:22:37;3.50;;;2.80;;
29824;SDS011;16713;52.916;12.834;2023-08-30T01:28:13;6.35;;;3.55;;
29824;SDS011;16713;52.916;12.834;2023-08-30T01:30:47;3.67;;;3.30;;
29824;SDS011;16713;52.916;12.834;2023-08-30T01:33:15;4.70;;;3.53;;
29824;SDS011;16713;52.916;12.834;2023-08-30T01:35:43;4.07;;;3.53;;
29824;SDS011;16713;52.916;12.834;2023-08-30T01:38:11;4.50;;;3.22;;
29824;SDS011;16713;52.916;12.834;2023-08-30T01:40:40;5.75;;;3.50;;
29824;SDS011;16713;52.916;12.834;2023-08-30T01:43:08;3.67;;;3.13;;
29824;SDS011;16713;52.916;12.834;2023-08-30T01:45:40;4.10;;;3.28;;
29824;SDS011;16713;52.916;12.834;2023-08-30T01:48:09;6.82;;;3.55;;
29824;SDS011;16713;52.916;12.834;2023-08-30T01:50:38;4.10;;;2.90;;
29824;SDS011;16713;52.916;12.834;2023-08-30T01:53:07;4.07;;;3.55;;
29824;SDS011;16713;52.916;12.834;2023-08-30T01:55:35;4.65;;;3.70;;
29824;SDS011;16713;52.916;12.834;2023-08-30T01:58:05;5.63;;;3.67;;
29824;SDS011;16713;52.916;12.834;2023-08-30T02:00:34;3.85;;;3.53;;
29824;SDS011;16713;52.916;12.834;2023-08-30T02:03:08;4.78;;;3.30;;
29824;SDS011;16713;52.916;12.834;2023-08-30T02:09:14;7.30;;;3.70;;
29824;SDS011;16713;52.916;12.834;2023-08-30T02:11:23;4.43;;;3.40;;
29824;SDS011;16713;52.916;12.834;2023-08-30T02:13:52;6.57;;;3.72;;
29824;SDS011;16713;52.916;12.834;2023-08-30T02:16:20;5.32;;;4.00;;
29824;SDS011;16713;52.916;12.834;2023-08-30T02:18:49;3.95;;;3.17;;
29824;SDS011;16713;52.916;12.834;2023-08-30T02:21:16;5.65;;;3.25;;
29824;SDS011;16713;52.916;12.834;2023-08-30T02:23:43;4.50;;;3.92;;
29824;SDS011;16713;52.916;12.834;2023-08-30T02:26:09;4.53;;;3.38;;
29824;SDS011;16713;52.916;12.834;2023-08-30T02:28:35;3.83;;;3.00;;
29824;SDS011;16713;52.916;12.834;2023-08-30T02:31:04;6.22;;;3.88;;
29824;SDS011;16713;52.916;12.834;2023-08-30T02:33:31;5.80;;;3.92;;
29824;SDS011;16713;52.916;12.834;2023-08-30T02:35:57;3.50;;;3.05;;
29824;SDS011;16713;52.916;12.834;2023-08-30T02:38:23;4.03;;;3.72;;
29824;SDS011;16713;52.916;12.834;2023-08-30T02:40:50;5.80;;;3.58;;
29824;SDS011;16713;52.916;12.834;2023-08-30T02:43:16;3.97;;;3.58;;
29824;SDS011;16713;52.916;12.834;2023-08-30T02:45:43;3.35;;;3.08;;
29824;SDS011;16713;52.916;12.834;2023-08-30T02:48:09;4.70;;;3.25;;
29824;SDS011;16713;52.916;12.834;2023-08-30T02:50:36;6.15;;;3.45;;
29824;SDS011;16713;52.916;12.834;2023-08-30T02:53:03;4.22;;;3.72;;
29824;SDS011;16713;52.916;12.834;2023-08-30T02:55:30;5.50;;;3.55;;
29824;SDS011;16713;52.916;12.834;2023-08-30T02:57:57;4.38;;;3.45;;
29824;SDS011;16713;52.916;12.834;2023-08-30T03:00:23;4.18;;;3.72;;
29824;SDS011;16713;52.916;12.834;2023-08-30T03:02:50;7.88;;;3.50;;
29824;SDS011;16713;52.916;12.834;2023-08-30T03:05:17;6.53;;;3.85;;
29824;SDS011;16713;52.916;12.834;2023-08-30T03:07:43;4.03;;;3.65;;
29824;SDS011;16713;52.916;12.834;2023-08-30T03:10:11;5.50;;;4.32;;
29824;SDS011;16713;52.916;12.834;2023-08-30T03:12:38;6.82;;;4.93;;
29824;SDS011;16713;52.916;12.834;2023-08-30T03:15:04;8.10;;;4.13;;
29824;SDS011;16713;52.916;12.834;2023-08-30T03:17:31;4.55;;;3.90;;
29824;SDS011;16713;52.916;12.834;2023-08-30T03:19:58;6.30;;;3.63;;
29824;SDS011;16713;52.916;12.834;2023-08-30T03:22:25;4.20;;;3.75;;
29824;SDS011;16713;52.916;12.834;2023-08-30T03:24:51;6.70;;;3.95;;
29824;SDS011;16713;52.916;12.834;2023-08-30T03:27:18;3.92;;;3.53;;
29824;SDS011;16713;52.916;12.834;2023-08-30T03:29:45;4.18;;;3.58;;
29824;SDS011;16713;52.916;12.834;2023-08-30T03:32:15;4.20;;;3.45;;
29824;SDS011;16713;52.916;12.834;2023-08-30T03:34:46;6.47;;;4.10;;
29824;SDS011;16713;52.916;12.834;2023-08-30T03:37:16;5.13;;;3.70;;
29824;SDS011;16713;52.916;12.834;2023-08-30T03:39:43;4.85;;;4.22;;
29824;SDS011;16713;52.916;12.834;2023-08-30T03:42:09;4.20;;;3.80;;
29824;SDS011;16713;52.916;12.834;2023-08-30T03:44:37;4.53;;;4.07;;
29824;SDS011;16713;52.916;12.834;2023-08-30T03:47:04;5.57;;;3.80;;
29824;SDS011;16713;52.916;12.834;2023-08-30T03:49:31;6.95;;;3.60;;
29824;SDS011;16713;52.916;12.834;2023-08-30T03:51:57;4.03;;;3.63;;
29824;SDS011;16713;52.916;12.834;2023-08-30T03:54:24;4.40;;;4.00;;
29824;SDS011;16713;52.916;12.834;2023-08-30T03:56:50;4.97;;;4.18;;
29824;SDS011;16713;52.916;12.834;2023-08-30T03:59:17;6.35;;;4.13;;
29824;SDS011;16713;52.916;12.834;2023-08-30T04:01:44;6.57;;;4.18;;
29824;SDS011;16713;52.916;12.834;2023-08-30T04:04:11;5.10;;;4.50;;
29824;SDS011;16713;52.916;12.834;2023-08-30T04:06:37;4.60;;;4.20;;
29824;SDS011;16713;52.916;12.834;2023-08-30T04:09:04;3.92;;;3.42;;
29824;SDS011;16713;52.916;12.834;2023-08-30T04:11:31;4.05;;;3.65;;
29824;SDS011;16713;52.916;12.834;2023-08-30T04:13:57;4.68;;;4.13;;
29824;SDS011;16713;52.916;12.834;2023-08-30T04:16:23;5.78;;;4.30;;
29824;SDS011;16713;52.916;12.834;2023-08-30T04:18:50;5.47;;;4.20;;
29824;SDS011;16713;52.916;12.834;2023-08-30T04:21:16;4.32;;;3.67;;
29824;SDS011;16713;52.916;12.834;2023-08-30T04:23:43;4.88;;;4.38;;
29824;SDS011;16713;52.916;12.834;2023-08-30T04:26:09;4.32;;;3.92;;
29824;SDS011;16713;52.916;12.834;2023-08-30T04:28:36;4.75;;;4.22;;
29824;SDS011;16713;52.916;12.834;2023-08-30T04:31:02;4.28;;;3.88;;
29824;SDS011;16713;52.916;12.834;2023-08-30T04:33:29;6.10;;;3.88;;
29824;SDS011;16713;52.916;12.834;2023-08-30T04:35:55;5.80;;;4.00;;
29824;SDS011;16713;52.916;12.834;2023-08-30T04:38:22;9.25;;;3.97;;
29824;SDS011;16713;52.916;12.834;2023-08-30T04:40:48;6.90;;;4.18;;
29824;SDS011;16713;52.916;12.834;2023-08-30T04:43:15;5.65;;;4.38;;
29824;SDS011;16713;52.916;12.834;2023-08-30T04:45:41;4.50;;;4.10;;
29824;SDS011;16713;52.916;12.834;2023-08-30T04:48:09;4.22;;;3.78;;
29824;SDS011;16713;52.916;12.834;2023-08-30T04:50:35;4.65;;;4.00;;
29824;SDS011;16713;52.916;12.834;2023-08-30T04:53:02;6.45;;;4.40;;
29824;SDS011;16713;52.916;12.834;2023-08-30T04:55:29;8.45;;;3.65;;
29824;SDS011;16713;52.916;12.834;2023-08-30T04:57:56;5.70;;;4.20;;
29824;SDS011;16713;52.916;12.834;2023-08-30T05:00:22;4.78;;;4.25;;
29824;SDS011;16713;52.916;12.834;2023-08-30T05:02:49;6.93;;;4.22;;
29824;SDS011;16713;52.916;12.834;2023-08-30T05:05:15;4.07;;;3.60;;
29824;SDS011;16713;52.916;12.834;2023-08-30T05:07:42;4.28;;;3.88;;
29824;SDS011;16713;52.916;12.834;2023-08-30T05:10:08;3.95;;;3.60;;
29824;SDS011;16713;52.916;12.834;2023-08-30T05:12:35;5.03;;;3.92;;
29824;SDS011;16713;52.916;12.834;2023-08-30T05:15:02;3.83;;;3.53;;
29824;SDS011;16713;52.916;12.834;2023-08-30T05:17:30;5.03;;;3.65;;
29824;SDS011;16713;52.916;12.834;2023-08-30T05:19:56;4.57;;;3.70;;
29824;SDS011;16713;52.916;12.834;2023-08-30T05:22:23;4.50;;;3.67;;
29824;SDS011;16713;52.916;12.834;2023-08-30T05:24:50;4.97;;;3.50;;
29824;SDS011;16713;52.916;12.834;2023-08-30T05:27:16;6.68;;;4.28;;
29824;SDS011;16713;52.916;12.834;2023-08-30T05:29:44;4.00;;;3.60;;
29824;SDS011;16713;52.916;12.834;2023-08-30T05:32:10;4.25;;;3.75;;
29824;SDS011;16713;52.916;12.834;2023-08-30T05:34:37;3.75;;;3.38;;
29824;SDS011;16713;52.916;12.834;2023-08-30T05:37:03;4.18;;;3.67;;
29824;SDS011;16713;52.916;12.834;2023-08-30T05:39:30;4.32;;;3.65;;
29824;SDS011;16713;52.916;12.834;2023-08-30T05:41:56;4.65;;;4.25;;
29824;SDS011;16713;52.916;12.834;2023-08-30T05:44:22;4.78;;;4.28;;
29824;SDS011;16713;52.916;12.834;2023-08-30T05:46:49;5.00;;;4.25;;
29824;SDS011;16713;52.916;12.834;2023-08-30T05:49:15;4.28;;;3.65;;
29824;SDS011;16713;52.916;12.834;2023-08-30T05:51:42;5.75;;;4.18;;
29824;SDS011;16713;52.916;12.834;2023-08-30T05:54:08;6.38;;;3.85;;
29824;SDS011;16713;52.916;12.834;2023-08-30T05:56:35;4.18;;;3.78;;
29824;SDS011;16713;52.916;12.834;2023-08-30T05:59:01;4.65;;;4.00;;
29824;SDS011;16713;52.916;12.834;2023-08-30T06:01:28;6.05;;;4.13;;
29824;SDS011;16713;52.916;12.834;2023-08-30T06:03:54;4.20;;;3.72;;
29824;SDS011;16713;52.916;12.834;2023-08-30T06:06:21;8.07;;;4.90;;
29824;SDS011;16713;52.916;12.834;2023-08-30T06:08:47;5.07;;;4.55;;
29824;SDS011;16713;52.916;12.834;2023-08-30T06:11:14;6.97;;;3.97;;
29824;SDS011;16713;52.916;12.834;2023-08-30T06:13:41;6.80;;;3.63;;
29824;SDS011;16713;52.916;12.834;2023-08-30T06:16:07;7.13;;;4.60;;
29824;SDS011;16713;52.916;12.834;2023-08-30T06:18:34;5.18;;;4.00;;
29824;SDS011;16713;52.916;12.834;2023-08-30T06:21:01;5.75;;;4.47;;
29824;SDS011;16713;52.916;12.834;2023-08-30T06:23:28;5.32;;;4.55;;
29824;SDS011;16713;52.916;12.834;2023-08-30T06:25:55;5.68;;;4.22;;
29824;SDS011;16713;52.916;12.834;2023-08-30T06:28:22;5.05;;;4.55;;
29824;SDS011;16713;52.916;12.834;2023-08-30T06:30:49;6.40;;;4.85;;
29824;SDS011;16713;52.916;12.834;2023-08-30T06:33:16;6.00;;;4.60;;
29824;SDS011;16713;52.916;12.834;2023-08-30T06:35:43;5.93;;;4.68;;
29824;SDS011;16713;52.916;12.834;2023-08-30T06:38:09;6.65;;;4.65;;
29824;SDS011;16713;52.916;12.834;2023-08-30T06:40:37;5.13;;;4.63;;
29824;SDS011;16713;52.916;12.834;2023-08-30T06:43:09;5.40;;;4.90;;
29824;SDS011;16713;52.916;12.834;2023-08-30T06:45:36;8.23;;;5.25;;
29824;SDS011;16713;52.916;12.834;2023-08-30T06:48:05;5.20;;;4.70;;
29824;SDS011;16713;52.916;12.834;2023-08-30T06:50:33;7.32;;;5.95;;
29824;SDS011;16713;52.916;12.834;2023-08-30T06:53:00;6.05;;;5.45;;
29824;SDS011;16713;52.916;12.834;2023-08-30T06:55:27;7.15;;;5.60;;
29824;SDS011;16713;52.916;12.834;2023-08-30T06:57:54;8.20;;;5.97;;
29824;SDS011;16713;52.916;12.834;2023-08-30T07:00:21;6.57;;;5.63;;
29824;SDS011;16713;52.916;12.834;2023-08-30T07:02:47;5.85;;;4.90;;
29824;SDS011;16713;52.916;12.834;2023-08-30T07:05:14;6.55;;;5.40;;
29824;SDS011;16713;52.916;12.834;2023-08-30T07:07:41;6.65;;;5.95;;
29824;SDS011;16713;52.916;12.834;2023-08-30T07:10:07;6.57;;;5.40;;
29824;SDS011;16713;52.916;12.834;2023-08-30T07:12:34;6.50;;;5.90;;
29824;SDS011;16713;52.916;12.834;2023-08-30T07:15:01;5.32;;;4.82;;
29824;SDS011;16713;52.916;12.834;2023-08-30T07:17:29;7.78;;;5.93;;
29824;SDS011;16713;52.916;12.834;2023-08-30T07:20:16;9.25;;;5.95;;
29824;SDS011;16713;52.916;12.834;2023-08-30T07:22:43;7.88;;;6.70;;
29824;SDS011;16713;52.916;12.834;2023-08-30T07:25:09;9.07;;;5.50;;
29824;SDS011;16713;52.916;12.834;2023-08-30T07:27:36;7.05;;;6.35;;
29824;SDS011;16713;52.916;12.834;2023-08-30T07:30:03;8.13;;;5.65;;
29824;SDS011;16713;52.916;12.834;2023-08-30T07:32:30;6.53;;;5.57;;
29824;SDS011;16713;52.916;12.834;2023-08-30T07:34:56;10.80;;;5.78;;
29824;SDS011;16713;52.916;12.834;2023-08-30T07:37:23;6.18;;;5.63;;
29824;SDS011;16713;52.916;12.834;2023-08-30T07:39:51;7.55;;;5.43;;
29824;SDS011;16713;52.916;12.834;2023-08-30T07:42:17;7.32;;;5.45;;
29824;SDS011;16713;52.916;12.834;2023-08-30T07:44:44;5.47;;;4.68;;
29824;SDS011;16713;52.916;12.834;2023-08-30T07:47:11;7.05;;;4.82;;
29824;SDS011;16713;52.916;12.834;2023-08-30T07:49:37;4.60;;;4.20;;
29824;SDS011;16713;52.916;12.834;2023-08-30T07:52:04;6.00;;;4.93;;
29824;SDS011;16713;52.916;12.834;2023-08-30T07:54:31;8.63;;;4.72;;
29824;SDS011;16713;52.916;12.834;2023-08-30T07:56:57;5.93;;;4.70;;
29824;SDS011;16713;52.916;12.834;2023-08-30T07:59:24;7.90;;;4.40;;
29824;SDS011;16713;52.916;12.834;2023-08-30T08:01:50;5.03;;;4.22;;
29824;SDS011;16713;52.916;12.834;2023-08-30T08:04:17;5.63;;;4.90;;
29824;SDS011;16713;52.916;12.834;2023-08-30T08:06:44;7.28;;;4.82;;
29824;SDS011;16713;52.916;12.834;2023-08-30T08:09:22;5.55;;;4.85;;
29824;SDS011;16713;52.916;12.834;2023-08-30T08:11:49;8.52;;;5.13;;
29824;SDS011;16713;52.916;12.834;2023-08-30T08:14:15;5.35;;;4.45;;
29824;SDS011;16713;52.916;12.834;2023-08-30T08:16:42;4.78;;;4.22;;
29824;SDS011;16713;52.916;12.834;2023-08-30T08:19:08;5.75;;;4.80;;
29824;SDS011;16713;52.916;12.834;2023-08-30T08:21:35;7.18;;;5.18;;
29824;SDS011;16713;52.916;12.834;2023-08-30T08:24:01;6.70;;;4.43;;
29824;SDS011;16713;52.916;12.834;2023-08-30T08:26:28;6.13;;;4.57;;
29824;SDS011;16713;52.916;12.834;2023-08-30T08:28:54;5.72;;;4.63;;
29824;SDS011;16713;52.916;12.834;2023-08-30T08:34:43;6.33;;;5.20;;
29824;SDS011;16713;52.916;12.834;2023-08-30T08:37:09;5.57;;;4.93;;
29824;SDS011;16713;52.916;12.834;2023-08-30T08:39:36;6.53;;;5.13;;
29824;SDS011;16713;52.916;12.834;2023-08-30T08:42:02;5.72;;;4.90;;
29824;SDS011;16713;52.916;12.834;2023-08-30T08:44:31;6.30;;;5.13;;
29824;SDS011;16713;52.916;12.834;2023-08-30T08:46:58;7.90;;;5.95;;
29824;SDS011;16713;52.916;12.834;2023-08-30T08:49:26;6.38;;;5.15;;
29824;SDS011;16713;52.916;12.834;2023-08-30T08:51:55;7.85;;;6.40;;
29824;SDS011;16713;52.916;12.834;2023-08-30T08:54:22;7.50;;;6.68;;
29824;SDS011;16713;52.916;12.834;2023-08-30T08:56:49;8.75;;;6.75;;
29824;SDS011;16713;52.916;12.834;2023-08-30T08:59:16;6.57;;;5.72;;
29824;SDS011;16713;52.916;12.834;2023-08-30T09:01:42;5.80;;;5.28;;
29824;SDS011;16713;52.916;12.834;2023-08-30T09:04:09;5.90;;;5.28;;
29824;SDS011;16713;52.916;12.834;2023-08-30T09:06:37;8.75;;;5.70;;
29824;SDS011;16713;52.916;12.834;2023-08-30T09:09:09;5.43;;;4.60;;
29824;SDS011;16713;52.916;12.834;2023-08-30T09:11:37;6.25;;;5.20;;
29824;SDS011;16713;52.916;12.834;2023-08-30T09:14:17;7.45;;;6.13;;
29824;SDS011;16713;52.916;12.834;2023-08-30T09:16:58;5.85;;;5.07;;
29824;SDS011;16713;52.916;12.834;2023-08-30T09:19:27;8.20;;;5.03;;
29824;SDS011;16713;52.916;12.834;2023-08-30T09:21:54;6.88;;;5.13;;
29824;SDS011;16713;52.916;12.834;2023-08-30T09:24:24;5.90;;;4.63;;
29824;SDS011;16713;52.916;12.834;2023-08-30T09:26:52;5.63;;;5.00;;
29824;SDS011;16713;52.916;12.834;2023-08-30T09:29:20;7.15;;;5.13;;
29824;SDS011;16713;52.916;12.834;2023-08-30T09:31:52;6.25;;;5.13;;
29824;SDS011;16713;52.916;12.834;2023-08-30T09:34:22;6.95;;;4.75;;
29824;SDS011;16713;52.916;12.834;2023-08-30T09:36:52;6.05;;;4.60;;
29824;SDS011;16713;52.916;12.834;2023-08-30T09:39:20;5.07;;;4.45;;
29824;SDS011;16713;52.916;12.834;2023-08-30T09:41:48;5.43;;;4.55;;
29824;SDS011;16713;52.916;12.834;2023-08-30T09:44:15;6.28;;;4.10;;
29824;SDS011;16713;52.916;12.834;2023-08-30T09:46:44;4.25;;;3.85;;
29824;SDS011;16713;52.916;12.834;2023-08-30T09:49:18;5.72;;;4.18;;
29824;SDS011;16713;52.916;12.834;2023-08-30T09:51:47;5.13;;;4.45;;
29824;SDS011;16713;52.916;12.834;2023-08-30T09:54:18;7.07;;;4.10;;
29824;SDS011;16713;52.916;12.834;2023-08-30T09:57:04;5.60;;;3.85;;
29824;SDS011;16713;52.916;12.834;2023-08-30T09:59:31;5.75;;;3.53;;
29824;SDS011;16713;52.916;12.834;2023-08-30T10:01:59;5.07;;;3.53;;
29824;SDS011;16713;52.916;12.834;2023-08-30T10:04:27;4.32;;;3.67;;
29824;SDS011;16713;52.916;12.834;2023-08-30T10:06:54;4.03;;;3.25;;
29824;SDS011;16713;52.916;12.834;2023-08-30T10:09:24;4.60;;;3.75;;
29824;SDS011;16713;52.916;12.834;2023-08-30T10:11:51;6.95;;;3.78;;
29824;SDS011;16713;52.916;12.834;2023-08-30T10:14:18;3.97;;;2.40;;
29824;SDS011;16713;52.916;12.834;2023-08-30T10:16:45;4.93;;;3.25;;
29824;SDS011;16713;52.916;12.834;2023-08-30T10:19:17;3.15;;;2.30;;
29824;SDS011;16713;52.916;12.834;2023-08-30T10:21:47;4.25;;;2.47;;
29824;SDS011;16713;52.916;12.834;2023-08-30T10:24:14;3.13;;;2.20;;
29824;SDS011;16713;52.916;12.834;2023-08-30T10:27:01;4.68;;;2.55;;
29824;SDS011;16713;52.916;12.834;2023-08-30T10:29:31;5.05;;;3.10;;
29824;SDS011;16713;52.916;12.834;2023-08-30T10:32:03;4.05;;;2.90;;
29824;SDS011;16713;52.916;12.834;2023-08-30T10:34:31;3.13;;;2.83;;
29824;SDS011;16713;52.916;12.834;2023-08-30T10:37:00;3.58;;;2.85;;
29824;SDS011;16713;52.916;12.834;2023-08-30T10:39:35;4.75;;;2.75;;
29824;SDS011;16713;52.916;12.834;2023-08-30T10:42:13;3.60;;;2.35;;
29824;SDS011;16713;52.916;12.834;2023-08-30T10:44:56;7.50;;;2.53;;
29824;SDS011;16713;52.916;12.834;2023-08-30T10:47:39;2.88;;;2.60;;
29824;SDS011;16713;52.916;12.834;2023-08-30T10:50:07;2.78;;;2.38;;
29824;SDS011;16713;52.916;12.834;2023-08-30T10:52:35;2.38;;;2.17;;
29824;SDS011;16713;52.916;12.834;2023-08-30T10:55:09;2.20;;;2.00;;
29824;SDS011;16713;52.916;12.834;2023-08-30T10:57:37;5.80;;;2.15;;
29824;SDS011;16713;52.916;12.834;2023-08-30T11:02:45;3.83;;;2.10;;
29824;SDS011;16713;52.916;12.834;2023-08-30T11:05:18;2.67;;;2.22;;
29824;SDS011;16713;52.916;12.834;2023-08-30T11:07:47;2.63;;;1.70;;
29824;SDS011;16713;52.916;12.834;2023-08-30T11:10:15;2.63;;;1.90;;
29824;SDS011;16713;52.916;12.834;2023-08-30T11:12:45;3.30;;;1.88;;
29824;SDS011;16713;52.916;12.834;2023-08-30T11:15:15;3.53;;;1.85;;
29824;SDS011;16713;52.916;12.834;2023-08-30T11:17:42;3.42;;;2.60;;
29824;SDS011;16713;52.916;12.834;2023-08-30T11:20:10;4.20;;;2.10;;
29824;SDS011;16713;52.916;12.834;2023-08-30T11:22:39;3.50;;;2.22;;
29824;SDS011;16713;52.916;12.834;2023-08-30T11:25:10;1.77;;;1.67;;
29824;SDS011;16713;52.916;12.834;2023-08-30T11:27:38;3.42;;;1.95;;
29824;SDS011;16713;52.916;12.834;2023-08-30T11:30:05;4.40;;;2.17;;
29824;SDS011;16713;52.916;12.834;2023-08-30T11:32:34;2.65;;;2.10;;
29824;SDS011;16713;52.916;12.834;2023-08-30T11:35:02;1.90;;;1.70;;
29824;SDS011;16713;52.916;12.834;2023-08-30T11:37:29;2.28;;;1.88;;
29824;SDS011;16713;52.916;12.834;2023-08-30T11:39:56;4.82;;;2.00;;
29824;SDS011;16713;52.916;12.834;2023-08-30T11:42:23;3.15;;;1.50;;
29824;SDS011;16713;52.916;12.834;2023-08-30T11:44:51;5.15;;;2.22;;
29824;SDS011;16713;52.916;12.834;2023-08-30T11:47:27;6.93;;;2.10;;
29824;SDS011;16713;52.916;12.834;2023-08-30T11:49:55;2.38;;;1.80;;
29824;SDS011;16713;52.916;12.834;2023-08-30T11:52:23;1.52;;;1.38;;
29824;SDS011;16713;52.916;12.834;2023-08-30T11:54:51;3.75;;;1.95;;
29824;SDS011;16713;52.916;12.834;2023-08-30T11:57:18;3.78;;;2.03;;
29824;SDS011;16713;52.916;12.834;2023-08-30T11:59:45;2.42;;;1.90;;
29824;SDS011;16713;52.916;12.834;2023-08-30T12:02:12;2.10;;;1.73;;
29824;SDS011;16713;52.916;12.834;2023-08-30T12:04:43;2.25;;;2.05;;
29824;SDS011;16713;52.916;12.834;2023-08-30T12:07:21;4.75;;;2.20;;
29824;SDS011;16713;52.916;12.834;2023-08-30T12:09:51;4.07;;;1.83;;
29824;SDS011;16713;52.916;12.834;2023-08-30T12:12:18;3.38;;;1.77;;
29824;SDS011;16713;52.916;12.834;2023-08-30T12:14:44;7.22;;;2.03;;
29824;SDS011;16713;52.916;12.834;2023-08-30T12:17:11;2.22;;;2.00;;
29824;SDS011;16713;52.916;12.834;2023-08-30T12:19:39;3.20;;;2.17;;
29824;SDS011;16713;52.916;12.834;2023-08-30T12:22:08;4.00;;;1.80;;
29824;SDS011;16713;52.916;12.834;2023-08-30T12:24:44;3.17;;;2.05;;
29824;SDS011;16713;52.916;12.834;2023-08-30T12:27:11;3.13;;;1.70;;
29824;SDS011;16713;52.916;12.834;2023-08-30T12:29:38;4.30;;;2.22;;
29824;SDS011;16713;52.916;12.834;2023-08-30T12:32:05;1.92;;;1.80;;
29824;SDS011;16713;52.916;12.834;2023-08-30T12:34:32;4.28;;;2.50;;
29824;SDS011;16713;52.916;12.834;2023-08-30T12:36:58;3.78;;;2.25;;
29824;SDS011;16713;52.916;12.834;2023-08-30T12:39:29;3.83;;;2.60;;
29824;SDS011;16713;52.916;12.834;2023-08-30T12:41:56;2.30;;;2.10;;
29824;SDS011;16713;52.916;12.834;2023-08-30T12:44:23;3.03;;;2.15;;
29824;SDS011;16713;52.916;12.834;2023-08-30T12:46:49;2.05;;;1.85;;
29824;SDS011;16713;52.916;12.834;2023-08-30T12:49:16;4.43;;;2.05;;
29824;SDS011;16713;52.916;12.834;2023-08-30T12:51:42;2.63;;;2.00;;
29824;SDS011;16713;52.916;12.834;2023-08-30T12:54:08;2.72;;;1.73;;
29824;SDS011;16713;52.916;12.834;2023-08-30T12:56:35;2.28;;;2.08;;
29824;SDS011;16713;52.916;12.834;2023-08-30T12:59:01;2.20;;;2.00;;
29824;SDS011;16713;52.916;12.834;2023-08-30T13:01:28;3.00;;;2.10;;
29824;SDS011;16713;52.916;12.834;2023-08-30T13:03:55;2.97;;;2.35;;
29824;SDS011;16713;52.916;12.834;2023-08-30T13:06:21;6.32;;;2.42;;
29824;SDS011;16713;52.916;12.834;2023-08-30T13:08:48;3.17;;;2.08;;
29824;SDS011;16713;52.916;12.834;2023-08-30T13:11:14;2.17;;;1.98;;
29824;SDS011;16713;52.916;12.834;2023-08-30T13:13:41;4.07;;;2.00;;
29824;SDS011;16713;52.916;12.834;2023-08-30T13:16:07;2.20;;;2.00;;
29824;SDS011;16713;52.916;12.834;2023-08-30T13:18:34;3.80;;;1.83;;
29824;SDS011;16713;52.916;12.834;2023-08-30T13:21:00;1.75;;;1.65;;
29824;SDS011;16713;52.916;12.834;2023-08-30T13:23:27;3.28;;;2.10;;
29824;SDS011;16713;52.916;12.834;2023-08-30T13:25:53;3.10;;;2.53;;
29824;SDS011;16713;52.916;12.834;2023-08-30T13:28:20;3.42;;;2.10;;
29824;SDS011;16713;52.916;12.834;2023-08-30T13:30:46;2.92;;;1.88;;
29824;SDS011;16713;52.916;12.834;2023-08-30T13:33:13;2.78;;;2.03;;
29824;SDS011;16713;52.916;12.834;2023-08-30T13:35:40;4.97;;;1.90;;
29824;SDS011;16713;52.916;12.834;2023-08-30T13:38:07;1.88;;;1.63;;
29824;SDS011;16713;52.916;12.834;2023-08-30T13:40:33;2.78;;;1.60;;
29824;SDS011;16713;52.916;12.834;2023-08-30T13:43:00;2.65;;;1.60;;
29824;SDS011;16713;52.916;12.834;2023-08-30T13:45:26;2.15;;;1.58;;
29824;SDS011;16713;52.916;12.834;2023-08-30T13:47:53;3.53;;;2.30;;
29824;SDS011;16713;52.916;12.834;2023-08-30T13:50:21;4.43;;;2.08;;
29824;SDS011;16713;52.916;12.834;2023-08-30T13:52:47;1.95;;;1.63;;
29824;SDS011;16713;52.916;12.834;2023-08-30T13:55:14;2.17;;;1.73;;
29824;SDS011;16713;52.916;12.834;2023-08-30T13:57:40;2.20;;;1.67;;
29824;SDS011;16713;52.916;12.834;2023-08-30T14:00:07;3.47;;;2.05;;
29824;SDS011;16713;52.916;12.834;2023-08-30T14:02:36;2.53;;;1.73;;
29824;SDS011;16713;52.916;12.834;2023-08-30T14:05:03;2.58;;;1.83;;
29824;SDS011;16713;52.916;12.834;2023-08-30T14:07:29;2.38;;;1.98;;
29824;SDS011;16713;52.916;12.834;2023-08-30T14:09:56;2.38;;;1.63;;
29824;SDS011;16713;52.916;12.834;2023-08-30T14:12:22;13.52;;;2.42;;
29824;SDS011;16713;52.916;12.834;2023-08-30T14:14:49;4.75;;;2.03;;
29824;SDS011;16713;52.916;12.834;2023-08-30T14:17:15;2.33;;;2.13;;
29824;SDS011;16713;52.916;12.834;2023-08-30T14:19:42;2.90;;;1.92;;
29824;SDS011;16713;52.916;12.834;2023-08-30T14:22:08;2.60;;;1.80;;
29824;SDS011;16713;52.916;12.834;2023-08-30T14:24:35;2.45;;;1.63;;
29824;SDS011;16713;52.916;12.834;2023-08-30T14:27:17;3.13;;;1.77;;
29824;SDS011;16713;52.916;12.834;2023-08-30T14:29:43;1.90;;;1.38;;
29824;SDS011;16713;52.916;12.834;2023-08-30T14:32:10;2.97;;;2.28;;
29824;SDS011;16713;52.916;12.834;2023-08-30T14:34:37;3.72;;;1.63;;
29824;SDS011;16713;52.916;12.834;2023-08-30T14:37:03;1.63;;;1.52;;
29824;SDS011;16713;52.916;12.834;2023-08-30T14:39:30;1.55;;;1.45;;
29824;SDS011;16713;52.916;12.834;2023-08-30T14:41:56;1.73;;;1.33;;
29824;SDS011;16713;52.916;12.834;2023-08-30T14:44:23;2.08;;;1.52;;
29824;SDS011;16713;52.916;12.834;2023-08-30T14:46:52;1.98;;;1.52;;
29824;SDS011;16713;52.916;12.834;2023-08-30T14:49:19;3.03;;;1.98;;